sensor_id;sensor_type;location;lat;lon;timestamp;P1;durP1;ratioP1;P2;durP2;ratioP2
34982;SDS011;21187;50.976;13.720;2022-08-01T00:01:20;3.22;;;2.40;;
34982;SDS011;21187;50.976;13.720;2022-08-01T00:06:22;3.30;;;2.13;;
34982;SDS011;21187;50.976;13.720;2022-08-01T00:11:24;2.00;;;1.80;;
34982;SDS011;21187;50.976;13.720;2022-08-01T00:16:25;3.53;;;2.38;;
34982;SDS011;21187;50.976;13.720;2022-08-01T00:21:27;3.88;;;2.08;;
34982;SDS011;21187;50.976;13.720;2022-08-01T00:26:29;2.78;;;1.88;;
34982;SDS011;21187;50.976;13.720;2022-08-01T00:31:31;5.07;;;2.13;;
34982;SDS011;21187;50.976;13.720;2022-08-01T00:36:33;4.63;;;2.20;;
34982;SDS011;21187;50.976;13.720;2022-08-01T00:41:35;6.13;;;2.47;;
34982;SDS011;21187;50.976;13.720;2022-08-01T00:46:37;3.30;;;1.80;;
34982;SDS011;21187;50.976;13.720;2022-08-01T00:51:40;2.80;;;2.13;;
34982;SDS011;21187;50.976;13.720;2022-08-01T00:56:42;4.25;;;1.98;;
34982;SDS011;21187;50.976;13.720;2022-08-01T01:01:44;3.35;;;2.10;;
34982;SDS011;21187;50.976;13.720;2022-08-01T01:23:05;4.32;;;1.98;;
34982;SDS011;21187;50.976;13.720;2022-08-01T01:34:02;4.10;;;2.33;;
34982;SDS011;21187;50.976;13.720;2022-08-01T01:39:05;3.45;;;2.30;;
34982;SDS011;21187;50.976;13.720;2022-08-01T01:44:08;7.57;;;2.15;;
34982;SDS011;21187;50.976;13.720;2022-08-01T01:49:11;3.30;;;2.13;;
34982;SDS011;21187;50.976;13.720;2022-08-01T01:54:14;2.88;;;2.10;;
34982;SDS011;21187;50.976;13.720;2022-08-01T01:59:18;3.60;;;2.00;;
34982;SDS011;21187;50.976;13.720;2022-08-01T02:04:26;6.60;;;2.30;;
34982;SDS011;21187;50.976;13.720;2022-08-01T02:09:29;3.92;;;2.28;;
34982;SDS011;21187;50.976;13.720;2022-08-01T02:14:33;2.78;;;2.25;;
34982;SDS011;21187;50.976;13.720;2022-08-01T02:19:39;4.10;;;2.60;;
34982;SDS011;21187;50.976;13.720;2022-08-01T02:30:08;5.00;;;2.20;;
34982;SDS011;21187;50.976;13.720;2022-08-01T02:35:27;3.60;;;2.08;;
34982;SDS011;21187;50.976;13.720;2022-08-01T02:40:31;4.13;;;2.30;;
34982;SDS011;21187;50.976;13.720;2022-08-01T02:45:35;2.80;;;2.22;;
34982;SDS011;21187;50.976;13.720;2022-08-01T02:50:41;5.45;;;2.28;;
34982;SDS011;21187;50.976;13.720;2022-08-01T02:55:45;5.35;;;2.28;;
34982;SDS011;21187;50.976;13.720;2022-08-01T03:00:48;7.18;;;2.80;;
34982;SDS011;21187;50.976;13.720;2022-08-01T03:05:52;4.75;;;2.72;;
34982;SDS011;21187;50.976;13.720;2022-08-01T03:10:55;3.97;;;2.47;;
34982;SDS011;21187;50.976;13.720;2022-08-01T03:16:00;4.43;;;2.78;;
34982;SDS011;21187;50.976;13.720;2022-08-01T03:21:05;4.00;;;2.60;;
34982;SDS011;21187;50.976;13.720;2022-08-01T03:26:08;3.75;;;2.65;;
34982;SDS011;21187;50.976;13.720;2022-08-01T03:31:12;5.10;;;2.95;;
34982;SDS011;21187;50.976;13.720;2022-08-01T03:36:15;6.72;;;2.60;;
34982;SDS011;21187;50.976;13.720;2022-08-01T03:41:22;5.35;;;2.72;;
34982;SDS011;21187;50.976;13.720;2022-08-01T03:46:29;5.80;;;2.80;;
34982;SDS011;21187;50.976;13.720;2022-08-01T03:51:34;4.70;;;2.80;;
34982;SDS011;21187;50.976;13.720;2022-08-01T03:56:39;9.35;;;2.78;;
34982;SDS011;21187;50.976;13.720;2022-08-01T04:01:44;5.40;;;2.75;;
34982;SDS011;21187;50.976;13.720;2022-08-01T04:06:47;5.10;;;2.60;;
34982;SDS011;21187;50.976;13.720;2022-08-01T04:11:52;4.93;;;2.78;;
34982;SDS011;21187;50.976;13.720;2022-08-01T04:16:54;5.07;;;2.95;;
34982;SDS011;21187;50.976;13.720;2022-08-01T04:21:56;5.70;;;3.10;;
34982;SDS011;21187;50.976;13.720;2022-08-01T04:27:00;4.20;;;2.83;;
34982;SDS011;21187;50.976;13.720;2022-08-01T04:32:03;4.43;;;2.47;;
34982;SDS011;21187;50.976;13.720;2022-08-01T04:37:09;7.65;;;3.33;;
34982;SDS011;21187;50.976;13.720;2022-08-01T04:42:13;6.93;;;3.05;;
34982;SDS011;21187;50.976;13.720;2022-08-01T04:47:26;4.13;;;2.80;;
34982;SDS011;21187;50.976;13.720;2022-08-01T04:52:34;3.35;;;2.80;;
34982;SDS011;21187;50.976;13.720;2022-08-01T04:57:39;4.90;;;3.17;;
34982;SDS011;21187;50.976;13.720;2022-08-01T05:02:42;5.85;;;3.13;;
34982;SDS011;21187;50.976;13.720;2022-08-01T05:07:44;3.35;;;2.63;;
34982;SDS011;21187;50.976;13.720;2022-08-01T05:12:46;5.03;;;2.90;;
34982;SDS011;21187;50.976;13.720;2022-08-01T05:17:48;5.32;;;2.90;;
34982;SDS011;21187;50.976;13.720;2022-08-01T05:22:50;2.53;;;2.20;;
34982;SDS011;21187;50.976;13.720;2022-08-01T05:27:52;4.40;;;2.60;;
34982;SDS011;21187;50.976;13.720;2022-08-01T05:32:54;4.28;;;2.75;;
34982;SDS011;21187;50.976;13.720;2022-08-01T05:37:57;6.13;;;2.60;;
34982;SDS011;21187;50.976;13.720;2022-08-01T05:42:59;5.47;;;2.40;;
34982;SDS011;21187;50.976;13.720;2022-08-01T05:48:01;3.80;;;2.67;;
34982;SDS011;21187;50.976;13.720;2022-08-01T05:53:03;5.60;;;2.03;;
34982;SDS011;21187;50.976;13.720;2022-08-01T05:58:05;3.65;;;2.13;;
34982;SDS011;21187;50.976;13.720;2022-08-01T06:03:06;3.72;;;2.42;;
34982;SDS011;21187;50.976;13.720;2022-08-01T06:08:08;4.00;;;2.78;;
34982;SDS011;21187;50.976;13.720;2022-08-01T06:13:10;4.10;;;2.35;;
34982;SDS011;21187;50.976;13.720;2022-08-01T06:18:12;3.45;;;2.30;;
34982;SDS011;21187;50.976;13.720;2022-08-01T06:23:15;5.60;;;2.35;;
34982;SDS011;21187;50.976;13.720;2022-08-01T06:28:32;4.28;;;2.35;;
34982;SDS011;21187;50.976;13.720;2022-08-01T06:33:34;2.35;;;1.88;;
34982;SDS011;21187;50.976;13.720;2022-08-01T06:38:37;3.63;;;2.15;;
34982;SDS011;21187;50.976;13.720;2022-08-01T06:43:39;5.30;;;2.40;;
34982;SDS011;21187;50.976;13.720;2022-08-01T06:48:40;4.63;;;2.22;;
34982;SDS011;21187;50.976;13.720;2022-08-01T06:53:44;2.85;;;2.25;;
34982;SDS011;21187;50.976;13.720;2022-08-01T06:58:45;4.80;;;2.15;;
34982;SDS011;21187;50.976;13.720;2022-08-01T07:03:48;3.60;;;2.50;;
34982;SDS011;21187;50.976;13.720;2022-08-01T07:08:55;3.85;;;2.58;;
34982;SDS011;21187;50.976;13.720;2022-08-01T07:13:57;3.40;;;2.95;;
34982;SDS011;21187;50.976;13.720;2022-08-01T07:18:59;6.60;;;3.50;;
34982;SDS011;21187;50.976;13.720;2022-08-01T07:24:01;5.63;;;3.35;;
34982;SDS011;21187;50.976;13.720;2022-08-01T07:29:13;9.43;;;3.47;;
34982;SDS011;21187;50.976;13.720;2022-08-01T07:34:15;4.18;;;2.92;;
34982;SDS011;21187;50.976;13.720;2022-08-01T07:39:17;7.50;;;3.20;;
34982;SDS011;21187;50.976;13.720;2022-08-01T07:44:19;4.60;;;3.20;;
34982;SDS011;21187;50.976;13.720;2022-08-01T07:49:21;7.25;;;3.58;;
34982;SDS011;21187;50.976;13.720;2022-08-01T07:54:23;4.43;;;3.28;;
34982;SDS011;21187;50.976;13.720;2022-08-01T07:59:33;7.55;;;3.10;;
34982;SDS011;21187;50.976;13.720;2022-08-01T08:04:35;5.30;;;2.80;;
34982;SDS011;21187;50.976;13.720;2022-08-01T08:09:37;7.18;;;2.90;;
34982;SDS011;21187;50.976;13.720;2022-08-01T08:14:39;2.65;;;2.30;;
34982;SDS011;21187;50.976;13.720;2022-08-01T08:19:41;3.05;;;2.08;;
34982;SDS011;21187;50.976;13.720;2022-08-01T08:24:43;2.38;;;1.92;;
34982;SDS011;21187;50.976;13.720;2022-08-01T08:29:47;2.67;;;1.73;;
34982;SDS011;21187;50.976;13.720;2022-08-01T08:34:49;1.85;;;1.65;;
34982;SDS011;21187;50.976;13.720;2022-08-01T08:39:51;2.83;;;1.67;;
34982;SDS011;21187;50.976;13.720;2022-08-01T08:44:53;2.67;;;1.45;;
34982;SDS011;21187;50.976;13.720;2022-08-01T08:49:57;1.77;;;1.38;;
34982;SDS011;21187;50.976;13.720;2022-08-01T08:55:00;3.13;;;1.23;;
34982;SDS011;21187;50.976;13.720;2022-08-01T09:00:03;1.45;;;1.10;;
34982;SDS011;21187;50.976;13.720;2022-08-01T09:05:05;1.75;;;1.40;;
34982;SDS011;21187;50.976;13.720;2022-08-01T09:10:08;2.65;;;1.63;;
34982;SDS011;21187;50.976;13.720;2022-08-01T09:15:11;1.90;;;1.70;;
34982;SDS011;21187;50.976;13.720;2022-08-01T09:20:22;1.58;;;1.48;;
34982;SDS011;21187;50.976;13.720;2022-08-01T09:25:25;2.33;;;1.70;;
34982;SDS011;21187;50.976;13.720;2022-08-01T09:30:47;3.10;;;2.08;;
34982;SDS011;21187;50.976;13.720;2022-08-01T09:35:56;2.60;;;1.88;;
34982;SDS011;21187;50.976;13.720;2022-08-01T09:40:59;2.28;;;2.08;;
34982;SDS011;21187;50.976;13.720;2022-08-01T09:46:09;4.55;;;1.77;;
34982;SDS011;21187;50.976;13.720;2022-08-01T09:51:15;2.65;;;1.63;;
34982;SDS011;21187;50.976;13.720;2022-08-01T09:56:50;1.83;;;1.55;;
34982;SDS011;21187;50.976;13.720;2022-08-01T10:01:52;2.70;;;1.13;;
34982;SDS011;21187;50.976;13.720;2022-08-01T10:06:53;1.27;;;0.90;;
34982;SDS011;21187;50.976;13.720;2022-08-01T10:12:07;1.25;;;0.90;;
34982;SDS011;21187;50.976;13.720;2022-08-01T10:17:17;2.38;;;0.93;;
34982;SDS011;21187;50.976;13.720;2022-08-01T10:22:23;1.77;;;0.90;;
34982;SDS011;21187;50.976;13.720;2022-08-01T10:27:26;1.08;;;0.90;;
34982;SDS011;21187;50.976;13.720;2022-08-01T10:32:40;1.65;;;0.70;;
34982;SDS011;21187;50.976;13.720;2022-08-01T10:37:51;2.88;;;0.73;;
34982;SDS011;21187;50.976;13.720;2022-08-01T10:42:57;4.63;;;0.70;;
34982;SDS011;21187;50.976;13.720;2022-08-01T10:48:10;0.90;;;0.90;;
34982;SDS011;21187;50.976;13.720;2022-08-01T10:53:22;5.18;;;1.45;;
34982;SDS011;21187;50.976;13.720;2022-08-01T10:58:43;0.82;;;0.80;;
34982;SDS011;21187;50.976;13.720;2022-08-01T11:14:17;0.73;;;0.52;;
34982;SDS011;21187;50.976;13.720;2022-08-01T11:19:26;2.20;;;0.80;;
34982;SDS011;21187;50.976;13.720;2022-08-01T11:25:08;1.95;;;0.90;;
34982;SDS011;21187;50.976;13.720;2022-08-01T11:35:20;4.07;;;0.50;;
34982;SDS011;21187;50.976;13.720;2022-08-01T11:40:28;0.70;;;0.50;;
34982;SDS011;21187;50.976;13.720;2022-08-01T11:45:46;0.93;;;0.70;;
34982;SDS011;21187;50.976;13.720;2022-08-01T11:50:55;0.88;;;0.77;;
34982;SDS011;21187;50.976;13.720;2022-08-01T11:55:57;3.15;;;1.00;;
34982;SDS011;21187;50.976;13.720;2022-08-01T12:01:00;1.95;;;1.02;;
34982;SDS011;21187;50.976;13.720;2022-08-01T12:06:02;2.05;;;1.27;;
34982;SDS011;21187;50.976;13.720;2022-08-01T12:11:05;4.22;;;0.90;;
34982;SDS011;21187;50.976;13.720;2022-08-01T12:16:08;2.17;;;0.90;;
34982;SDS011;21187;50.976;13.720;2022-08-01T12:21:11;0.70;;;0.60;;
34982;SDS011;21187;50.976;13.720;2022-08-01T12:26:13;1.10;;;0.75;;
34982;SDS011;21187;50.976;13.720;2022-08-01T12:31:32;3.40;;;0.55;;
34982;SDS011;21187;50.976;13.720;2022-08-01T12:36:35;0.88;;;0.40;;
34982;SDS011;21187;50.976;13.720;2022-08-01T12:41:37;0.40;;;0.40;;
34982;SDS011;21187;50.976;13.720;2022-08-01T12:46:39;1.67;;;1.13;;
34982;SDS011;21187;50.976;13.720;2022-08-01T12:51:44;0.80;;;0.60;;
34982;SDS011;21187;50.976;13.720;2022-08-01T12:56:57;1.63;;;0.50;;
34982;SDS011;21187;50.976;13.720;2022-08-01T13:02:07;1.75;;;0.70;;
34982;SDS011;21187;50.976;13.720;2022-08-01T13:07:10;1.27;;;0.60;;
34982;SDS011;21187;50.976;13.720;2022-08-01T13:12:12;0.50;;;0.50;;
34982;SDS011;21187;50.976;13.720;2022-08-01T13:17:32;6.00;;;0.73;;
34982;SDS011;21187;50.976;13.720;2022-08-01T13:22:39;14.85;;;0.90;;
34982;SDS011;21187;50.976;13.720;2022-08-01T13:27:42;0.57;;;0.20;;
34982;SDS011;21187;50.976;13.720;2022-08-01T13:32:57;0.30;;;0.30;;
34982;SDS011;21187;50.976;13.720;2022-08-01T13:38:00;0.63;;;0.32;;
34982;SDS011;21187;50.976;13.720;2022-08-01T13:43:11;0.57;;;0.35;;
34982;SDS011;21187;50.976;13.720;2022-08-01T13:48:13;0.20;;;0.20;;
34982;SDS011;21187;50.976;13.720;2022-08-01T13:53:19;2.17;;;0.30;;
34982;SDS011;21187;50.976;13.720;2022-08-01T13:58:21;3.42;;;0.40;;
34982;SDS011;21187;50.976;13.720;2022-08-01T14:03:23;0.77;;;0.70;;
34982;SDS011;21187;50.976;13.720;2022-08-01T14:08:34;3.85;;;0.60;;
34982;SDS011;21187;50.976;13.720;2022-08-01T14:13:36;1.88;;;0.38;;
34982;SDS011;21187;50.976;13.720;2022-08-01T14:18:47;0.80;;;0.30;;
34982;SDS011;21187;50.976;13.720;2022-08-01T14:23:49;0.65;;;0.50;;
34982;SDS011;21187;50.976;13.720;2022-08-01T14:28:51;3.22;;;0.50;;
34982;SDS011;21187;50.976;13.720;2022-08-01T14:33:53;2.90;;;0.60;;
34982;SDS011;21187;50.976;13.720;2022-08-01T14:38:55;0.60;;;0.60;;
34982;SDS011;21187;50.976;13.720;2022-08-01T14:44:01;0.63;;;0.60;;
34982;SDS011;21187;50.976;13.720;2022-08-01T14:49:03;2.13;;;0.60;;
34982;SDS011;21187;50.976;13.720;2022-08-01T14:54:05;0.90;;;0.88;;
34982;SDS011;21187;50.976;13.720;2022-08-01T14:59:09;16.13;;;9.10;;
34982;SDS011;21187;50.976;13.720;2022-08-01T15:04:24;7.60;;;3.10;;
34982;SDS011;21187;50.976;13.720;2022-08-01T15:09:26;12.23;;;4.22;;
34982;SDS011;21187;50.976;13.720;2022-08-01T15:14:28;6.85;;;4.35;;
34982;SDS011;21187;50.976;13.720;2022-08-01T15:19:50;6.63;;;2.25;;
34982;SDS011;21187;50.976;13.720;2022-08-01T15:24:56;0.85;;;0.70;;
34982;SDS011;21187;50.976;13.720;2022-08-01T15:29:59;2.47;;;0.70;;
34982;SDS011;21187;50.976;13.720;2022-08-01T15:35:01;2.70;;;0.45;;
34982;SDS011;21187;50.976;13.720;2022-08-01T15:40:03;0.63;;;0.60;;
34982;SDS011;21187;50.976;13.720;2022-08-01T15:45:06;6.30;;;0.73;;
34982;SDS011;21187;50.976;13.720;2022-08-01T15:50:13;0.73;;;0.63;;
34982;SDS011;21187;50.976;13.720;2022-08-01T15:55:15;0.50;;;0.50;;
34982;SDS011;21187;50.976;13.720;2022-08-01T16:00:17;0.82;;;0.60;;
34982;SDS011;21187;50.976;13.720;2022-08-01T16:05:19;3.30;;;1.20;;
34982;SDS011;21187;50.976;13.720;2022-08-01T16:10:21;0.50;;;0.50;;
34982;SDS011;21187;50.976;13.720;2022-08-01T16:15:23;1.05;;;0.40;;
34982;SDS011;21187;50.976;13.720;2022-08-01T16:20:37;0.60;;;0.60;;
34982;SDS011;21187;50.976;13.720;2022-08-01T16:25:46;0.60;;;0.60;;
34982;SDS011;21187;50.976;13.720;2022-08-01T16:30:48;0.70;;;0.70;;
34982;SDS011;21187;50.976;13.720;2022-08-01T16:36:10;0.70;;;0.70;;
34982;SDS011;21187;50.976;13.720;2022-08-01T16:41:17;1.05;;;0.90;;
34982;SDS011;21187;50.976;13.720;2022-08-01T16:46:21;3.03;;;0.60;;
34982;SDS011;21187;50.976;13.720;2022-08-01T16:51:25;0.60;;;0.60;;
34982;SDS011;21187;50.976;13.720;2022-08-01T16:56:32;0.75;;;0.68;;
34982;SDS011;21187;50.976;13.720;2022-08-01T17:01:34;1.38;;;0.65;;
34982;SDS011;21187;50.976;13.720;2022-08-01T17:07:00;1.92;;;0.70;;
34982;SDS011;21187;50.976;13.720;2022-08-01T17:12:01;3.45;;;0.60;;
34982;SDS011;21187;50.976;13.720;2022-08-01T17:17:04;7.10;;;0.68;;
34982;SDS011;21187;50.976;13.720;2022-08-01T17:22:07;0.60;;;0.50;;
34982;SDS011;21187;50.976;13.720;2022-08-01T17:27:09;2.70;;;0.52;;
34982;SDS011;21187;50.976;13.720;2022-08-01T17:32:13;0.85;;;0.50;;
34982;SDS011;21187;50.976;13.720;2022-08-01T17:37:15;0.50;;;0.50;;
34982;SDS011;21187;50.976;13.720;2022-08-01T17:42:17;0.50;;;0.38;;
34982;SDS011;21187;50.976;13.720;2022-08-01T17:47:19;0.50;;;0.50;;
34982;SDS011;21187;50.976;13.720;2022-08-01T17:52:43;2.90;;;0.50;;
34982;SDS011;21187;50.976;13.720;2022-08-01T17:57:46;2.42;;;0.38;;
34982;SDS011;21187;50.976;13.720;2022-08-01T18:02:48;0.60;;;0.50;;
34982;SDS011;21187;50.976;13.720;2022-08-01T18:07:51;2.05;;;0.70;;
34982;SDS011;21187;50.976;13.720;2022-08-01T18:13:02;0.55;;;0.50;;
34982;SDS011;21187;50.976;13.720;2022-08-01T18:18:06;2.17;;;0.40;;
34982;SDS011;21187;50.976;13.720;2022-08-01T18:23:08;4.05;;;0.45;;
34982;SDS011;21187;50.976;13.720;2022-08-01T18:28:11;2.83;;;0.40;;
34982;SDS011;21187;50.976;13.720;2022-08-01T18:33:33;0.85;;;0.43;;
34982;SDS011;21187;50.976;13.720;2022-08-01T18:38:36;0.57;;;0.30;;
34982;SDS011;21187;50.976;13.720;2022-08-01T18:43:44;1.52;;;0.60;;
34982;SDS011;21187;50.976;13.720;2022-08-01T18:48:46;0.57;;;0.43;;
34982;SDS011;21187;50.976;13.720;2022-08-01T18:53:49;0.60;;;0.60;;
34982;SDS011;21187;50.976;13.720;2022-08-01T18:58:53;2.58;;;0.50;;
34982;SDS011;21187;50.976;13.720;2022-08-01T19:03:55;1.35;;;0.70;;
34982;SDS011;21187;50.976;13.720;2022-08-01T19:08:58;0.75;;;0.50;;
34982;SDS011;21187;50.976;13.720;2022-08-01T19:14:03;0.52;;;0.50;;
34982;SDS011;21187;50.976;13.720;2022-08-01T19:19:05;0.52;;;0.40;;
34982;SDS011;21187;50.976;13.720;2022-08-01T19:24:10;0.70;;;0.60;;
34982;SDS011;21187;50.976;13.720;2022-08-01T19:29:25;1.00;;;0.60;;
34982;SDS011;21187;50.976;13.720;2022-08-01T19:34:41;0.88;;;0.60;;
34982;SDS011;21187;50.976;13.720;2022-08-01T19:39:52;4.13;;;0.55;;
34982;SDS011;21187;50.976;13.720;2022-08-01T19:44:54;1.48;;;0.75;;
34982;SDS011;21187;50.976;13.720;2022-08-01T19:49:56;0.75;;;0.60;;
34982;SDS011;21187;50.976;13.720;2022-08-01T19:54:58;3.03;;;0.60;;
34982;SDS011;21187;50.976;13.720;2022-08-01T20:00:07;0.75;;;0.50;;
34982;SDS011;21187;50.976;13.720;2022-08-01T20:05:23;0.55;;;0.50;;
34982;SDS011;21187;50.976;13.720;2022-08-01T20:10:26;3.35;;;0.52;;
34982;SDS011;21187;50.976;13.720;2022-08-01T20:15:30;1.83;;;0.77;;
34982;SDS011;21187;50.976;13.720;2022-08-01T20:20:32;0.88;;;0.52;;
34982;SDS011;21187;50.976;13.720;2022-08-01T20:25:37;0.82;;;0.70;;
34982;SDS011;21187;50.976;13.720;2022-08-01T20:30:42;0.88;;;0.70;;
34982;SDS011;21187;50.976;13.720;2022-08-01T20:35:44;1.50;;;0.60;;
34982;SDS011;21187;50.976;13.720;2022-08-01T20:40:54;0.60;;;0.50;;
34982;SDS011;21187;50.976;13.720;2022-08-01T20:46:03;1.35;;;0.70;;
34982;SDS011;21187;50.976;13.720;2022-08-01T20:51:05;1.95;;;0.57;;
34982;SDS011;21187;50.976;13.720;2022-08-01T20:56:36;1.35;;;0.82;;
34982;SDS011;21187;50.976;13.720;2022-08-01T21:01:47;1.35;;;0.80;;
34982;SDS011;21187;50.976;13.720;2022-08-01T21:07:02;0.52;;;0.52;;
34982;SDS011;21187;50.976;13.720;2022-08-01T21:12:09;1.20;;;0.63;;
34982;SDS011;21187;50.976;13.720;2022-08-01T21:28:05;1.07;;;0.97;;
34982;SDS011;21187;50.976;13.720;2022-08-01T21:33:11;1.73;;;0.90;;
34982;SDS011;21187;50.976;13.720;2022-08-01T21:38:14;5.18;;;1.13;;
34982;SDS011;21187;50.976;13.720;2022-08-01T21:43:17;3.78;;;0.65;;
34982;SDS011;21187;50.976;13.720;2022-08-01T21:48:20;2.42;;;0.60;;
34982;SDS011;21187;50.976;13.720;2022-08-01T21:53:42;0.88;;;0.70;;
34982;SDS011;21187;50.976;13.720;2022-08-01T21:58:57;2.00;;;0.73;;
34982;SDS011;21187;50.976;13.720;2022-08-01T22:04:12;0.80;;;0.70;;
34982;SDS011;21187;50.976;13.720;2022-08-01T22:09:18;1.00;;;0.77;;
34982;SDS011;21187;50.976;13.720;2022-08-01T22:14:22;0.63;;;0.60;;
34982;SDS011;21187;50.976;13.720;2022-08-01T22:19:26;1.17;;;0.85;;
34982;SDS011;21187;50.976;13.720;2022-08-01T22:24:44;2.45;;;0.75;;
34982;SDS011;21187;50.976;13.720;2022-08-01T22:29:56;1.27;;;0.60;;
34982;SDS011;21187;50.976;13.720;2022-08-01T22:35:10;0.90;;;0.73;;
34982;SDS011;21187;50.976;13.720;2022-08-01T22:40:14;1.83;;;0.60;;
34982;SDS011;21187;50.976;13.720;2022-08-01T22:45:22;1.20;;;0.50;;
34982;SDS011;21187;50.976;13.720;2022-08-01T22:50:38;1.00;;;0.90;;
34982;SDS011;21187;50.976;13.720;2022-08-01T22:55:44;0.70;;;0.70;;
34982;SDS011;21187;50.976;13.720;2022-08-01T23:01:00;2.17;;;0.60;;
34982;SDS011;21187;50.976;13.720;2022-08-01T23:06:37;1.33;;;0.90;;
34982;SDS011;21187;50.976;13.720;2022-08-01T23:11:41;1.70;;;0.90;;
34982;SDS011;21187;50.976;13.720;2022-08-01T23:16:44;2.70;;;0.75;;
34982;SDS011;21187;50.976;13.720;2022-08-01T23:21:46;1.33;;;0.80;;
34982;SDS011;21187;50.976;13.720;2022-08-01T23:26:49;0.70;;;0.70;;
34982;SDS011;21187;50.976;13.720;2022-08-01T23:31:51;4.30;;;1.50;;
34982;SDS011;21187;50.976;13.720;2022-08-01T23:37:11;0.90;;;0.80;;
34982;SDS011;21187;50.976;13.720;2022-08-01T23:42:14;1.42;;;0.82;;
34982;SDS011;21187;50.976;13.720;2022-08-01T23:47:16;1.00;;;0.90;;
34982;SDS011;21187;50.976;13.720;2022-08-01T23:52:18;0.93;;;0.82;;
34982;SDS011;21187;50.976;13.720;2022-08-01T23:57:21;0.95;;;0.90;;
